createdAt,value
2019-01-13T00:03:54.881Z,7.69
2019-01-13T00:06:24.514Z,7.69
2019-01-13T00:08:53.864Z,7.71
2019-01-13T00:11:24.806Z,7.70
2019-01-13T00:13:54.154Z,7.68
2019-01-13T00:16:23.767Z,7.67
2019-01-13T00:18:53.179Z,7.65
2019-01-13T00:21:22.823Z,7.67
2019-01-13T00:23:52.168Z,7.71
2019-01-13T00:26:21.808Z,7.73
2019-01-13T00:28:51.400Z,7.77
2019-01-13T00:31:21.020Z,7.77
2019-01-13T00:33:50.682Z,7.81
2019-01-13T01:02:50.195Z,7.90
2019-01-13T01:05:20.215Z,7.93
2019-01-13T01:08:10.771Z,7.93
2019-01-13T01:10:40.103Z,7.95
2019-01-13T01:13:09.756Z,7.95
2019-01-13T01:15:39.032Z,7.94
2019-01-13T01:18:09.006Z,7.95
2019-01-13T01:20:38.568Z,7.96
2019-01-13T01:23:08.226Z,7.91
2019-01-13T01:25:37.853Z,7.94
2019-01-13T01:28:07.209Z,7.94
2019-01-13T01:30:36.852Z,7.93
2019-01-13T01:33:06.183Z,7.91
2019-01-13T01:35:37.150Z,7.89
2019-01-13T01:38:07.069Z,7.92
2019-01-13T01:40:36.417Z,7.91
2019-01-13T01:43:06.040Z,7.93
2019-01-13T01:45:35.634Z,7.94
2019-01-13T01:48:05.349Z,7.94
2019-01-13T01:50:35.168Z,7.95
2019-01-13T01:53:05.271Z,7.95
2019-01-13T01:55:34.916Z,7.98
2019-01-13T01:58:04.505Z,7.96
2019-01-13T02:00:40.465Z,7.98
2019-01-13T02:03:26.002Z,7.97
2019-01-13T02:05:55.356Z,7.97
2019-01-13T02:08:24.980Z,8.06
2019-01-13T02:10:54.569Z,8.07
2019-01-13T02:13:24.037Z,8.08
2019-01-13T02:15:53.380Z,8.08
2019-01-13T02:18:42.017Z,8.05
2019-01-13T02:21:11.362Z,8.05
2019-01-13T02:23:40.991Z,8.03
2019-01-13T02:26:10.579Z,8.05
2019-01-13T02:28:39.974Z,8.04
2019-01-13T02:31:09.327Z,8.02
2019-01-13T05:54:19.737Z,8.07
2019-01-13T05:56:49.385Z,8.06
2019-01-13T05:59:19.107Z,8.05
2019-01-13T06:01:49.357Z,8.05
2019-01-13T06:04:25.106Z,8.05
2019-01-13T06:06:54.502Z,8.06
2019-01-13T06:09:23.856Z,8.06
2019-01-13T06:11:54.813Z,8.07
2019-01-13T06:14:24.522Z,8.02
2019-01-13T06:16:53.850Z,8.01
2019-01-13T06:19:23.514Z,8.01
2019-01-13T06:21:52.853Z,8.01
2019-01-13T06:24:22.757Z,7.95
2019-01-13T06:26:52.382Z,7.95
2019-01-13T06:29:22.025Z,8.00
2019-01-13T06:31:56.275Z,7.99
2019-01-13T06:34:28.689Z,7.99
2019-01-13T06:36:58.038Z,7.96
2019-01-13T06:48:21.831Z,8.00
2019-01-13T06:50:51.458Z,8.03
2019-01-13T06:53:20.828Z,8.04
2019-01-13T06:55:50.168Z,8.02
2019-01-13T06:58:19.827Z,8.01
2019-01-13T07:00:49.461Z,8.03
2019-01-13T07:03:18.839Z,8.03
2019-01-13T07:08:50.629Z,8.05
2019-01-13T07:11:20.312Z,8.07
2019-01-13T07:13:49.784Z,8.08
2019-01-13T07:16:19.104Z,8.08
2019-01-13T07:18:48.628Z,8.08
2019-01-13T07:21:17.978Z,8.08
2019-01-13T07:23:50.467Z,8.12
2019-01-13T07:26:20.091Z,8.12
2019-01-13T07:28:49.725Z,8.10
2019-01-13T07:31:19.052Z,8.10
2019-01-13T07:33:48.714Z,8.11
2019-01-13T07:36:18.046Z,8.11
2019-01-13T07:39:00.343Z,8.13
2019-01-13T07:41:29.741Z,8.13
2019-01-13T07:43:59.086Z,8.20
2019-01-13T07:46:28.232Z,8.20
2019-01-13T07:48:58.017Z,8.20
2019-01-13T07:51:27.635Z,8.20
2019-01-13T07:53:56.993Z,8.26
2019-01-13T07:56:26.646Z,8.27
2019-01-13T07:58:55.999Z,8.29
2019-01-13T08:01:25.347Z,8.30
2019-01-13T08:04:07.987Z,8.33
2019-01-13T08:06:37.619Z,8.33
2019-01-13T10:07:43.248Z,9.40
2019-01-13T10:10:52.641Z,9.43
2019-01-13T10:13:24.383Z,9.48
2019-01-13T10:15:54.060Z,9.52
2019-01-13T10:18:25.055Z,9.54
2019-01-13T10:20:56.070Z,9.55
2019-01-13T10:23:31.146Z,9.59
2019-01-13T10:26:00.480Z,9.65
2019-01-13T10:28:30.180Z,9.65
2019-01-13T10:31:03.291Z,9.67
2019-01-13T10:33:40.214Z,9.67
2019-01-13T10:36:09.831Z,9.67
2019-01-13T10:38:39.227Z,9.69
2019-01-13T10:41:08.555Z,9.73
2019-01-13T10:43:38.212Z,9.75
2019-01-13T10:46:07.542Z,9.79
2019-01-13T10:48:56.493Z,9.81
2019-01-13T10:51:26.117Z,9.80
2019-01-13T10:53:55.490Z,9.82
2019-01-13T10:56:44.189Z,9.82
2019-01-13T10:59:13.539Z,9.82
2019-01-13T11:01:43.244Z,9.83
2019-01-13T11:04:12.570Z,9.84
2019-01-13T11:06:42.186Z,9.85
2019-01-13T11:12:04.375Z,9.87
2019-01-13T11:14:36.358Z,9.89
2019-01-13T11:17:06.640Z,9.88
2019-01-13T11:19:55.839Z,9.85
2019-01-13T11:22:25.273Z,9.85
2019-01-13T11:24:54.602Z,9.91
2019-01-13T11:27:24.486Z,9.90
2019-01-13T11:29:53.804Z,9.87
2019-01-13T11:32:23.610Z,9.84
2019-01-13T11:34:52.953Z,9.84
2019-01-13T11:37:22.859Z,9.85
2019-01-13T11:39:52.657Z,9.84
2019-01-13T11:42:22.572Z,9.82
2019-01-13T11:45:11.848Z,9.83
2019-01-13T11:47:41.371Z,9.83
2019-01-13T11:50:31.533Z,9.81
2019-01-13T11:53:00.880Z,9.80
2019-01-13T11:55:30.450Z,9.82
2019-01-13T11:57:59.794Z,9.83
2019-01-13T12:03:31.456Z,9.85
2019-01-13T12:06:00.908Z,9.87
2019-01-13T12:08:30.344Z,9.87
2019-01-13T12:10:59.666Z,9.86
2019-01-13T12:13:29.008Z,9.86
2019-01-13T12:15:58.552Z,9.87
2019-01-13T12:18:27.891Z,9.90
2019-01-13T12:20:57.510Z,9.90
2019-01-13T12:23:27.152Z,9.90
2019-01-13T12:25:56.547Z,9.89
2019-01-13T12:28:25.871Z,9.88
2019-01-13T12:30:55.503Z,9.90
2019-01-13T12:33:24.951Z,9.88
2019-01-13T12:35:54.887Z,9.91
2019-01-13T12:41:13.047Z,9.91
2019-01-13T12:43:42.535Z,9.88
2019-01-13T12:46:24.582Z,9.85
2019-01-13T12:48:53.918Z,9.85
2019-01-13T12:51:23.743Z,9.85
2019-01-13T12:53:53.079Z,9.82
2019-01-13T12:56:22.714Z,9.77
2019-01-13T12:58:52.290Z,9.75
2019-01-13T13:01:21.958Z,9.71
2019-01-13T13:03:51.640Z,9.68
2019-01-13T13:06:20.973Z,9.69
2019-01-13T13:11:43.053Z,9.63
2019-01-13T13:14:12.695Z,9.67
2019-01-13T13:16:43.638Z,9.64
2019-01-13T13:19:13.008Z,9.65
2019-01-13T13:21:42.678Z,9.65
2019-01-13T13:26:52.024Z,9.66
2019-01-13T13:29:21.934Z,9.65
2019-01-13T13:31:51.920Z,9.67
2019-01-13T13:34:42.380Z,9.62
2019-01-13T13:37:11.865Z,9.62
2019-01-13T13:39:41.569Z,9.64
2019-01-13T13:42:10.844Z,9.67
2019-01-13T13:44:40.501Z,9.65
2019-01-13T13:47:10.032Z,9.63
2019-01-13T13:49:39.657Z,9.61
2019-01-13T13:52:09.000Z,9.64
2019-01-13T13:54:38.688Z,9.62
2019-01-13T13:57:08.014Z,9.61
2019-01-13T13:59:37.689Z,9.60
2019-01-13T14:02:07.016Z,9.58
2019-01-13T14:04:36.697Z,9.61
2019-01-13T14:07:07.048Z,9.63
2019-01-13T14:09:36.647Z,9.66
2019-01-13T14:12:06.985Z,9.65
2019-01-13T14:14:36.605Z,9.65
2019-01-13T14:17:07.053Z,9.67
2019-01-13T14:19:36.710Z,9.72
2019-01-13T14:22:08.019Z,9.74
2019-01-13T14:24:37.353Z,9.73
2019-01-13T14:27:07.260Z,9.71
2019-01-13T14:29:36.738Z,9.74
2019-01-13T14:32:07.140Z,9.73
2019-01-13T14:34:36.746Z,9.73
2019-01-13T14:37:07.085Z,9.73
2019-01-13T14:39:36.783Z,9.74
2019-01-13T14:42:07.348Z,9.75
2019-01-13T14:44:37.163Z,9.80
2019-01-13T14:47:07.199Z,9.83
2019-01-13T14:49:37.485Z,9.81
2019-01-13T14:52:17.010Z,9.75
2019-01-13T14:54:47.025Z,9.75
2019-01-13T14:57:36.800Z,9.79
2019-01-13T15:00:27.595Z,9.76
2019-01-13T15:02:56.925Z,9.71
2019-01-13T15:05:26.323Z,9.71
2019-01-13T15:07:55.768Z,9.65
2019-01-13T15:13:26.791Z,9.61
2019-01-13T15:15:56.480Z,9.60
2019-01-13T15:18:26.302Z,9.60
2019-01-13T15:20:55.935Z,9.59
2019-01-13T15:23:25.258Z,9.58
2019-01-13T15:25:59.979Z,9.59
2019-01-13T15:28:29.303Z,9.60
2019-01-13T15:30:58.846Z,9.61
2019-01-13T15:33:28.175Z,9.60
2019-01-13T15:35:57.579Z,9.65
2019-01-13T15:42:00.961Z,9.69
2019-01-13T15:44:30.288Z,9.70
2019-01-13T15:46:59.879Z,9.70
2019-01-13T15:49:29.207Z,9.71
2019-01-13T15:52:18.440Z,9.76
2019-01-13T15:57:34.245Z,9.76
2019-01-13T16:00:35.019Z,9.76
2019-01-13T16:03:25.403Z,9.77
2019-01-13T16:05:54.967Z,9.81
2019-01-13T16:08:37.385Z,9.82
2019-01-13T16:11:07.434Z,9.79
2019-01-13T16:13:36.984Z,9.74
2019-01-13T16:16:07.307Z,9.73
2019-01-13T16:18:36.934Z,9.73
2019-01-13T16:21:07.328Z,9.72
2019-01-13T16:23:37.029Z,9.71
2019-01-13T16:26:07.308Z,9.70
2019-01-13T16:28:36.941Z,9.65
2019-01-13T16:31:07.373Z,9.64
2019-01-13T16:33:37.071Z,9.64
2019-01-13T16:36:07.364Z,9.68
2019-01-13T16:38:37.067Z,9.66
2019-01-13T16:41:07.535Z,9.43
2019-01-13T16:43:37.027Z,9.26
2019-01-13T16:46:07.436Z,9.08
2019-01-13T16:48:37.055Z,8.93
2019-01-13T16:51:07.419Z,8.82
2019-01-13T16:53:37.258Z,8.75
2019-01-13T16:56:07.334Z,8.70
2019-01-13T16:58:36.674Z,8.66
2019-01-13T17:01:07.426Z,8.62
2019-01-13T17:03:37.306Z,8.58
2019-01-13T17:06:26.723Z,8.55
2019-01-13T17:09:10.111Z,8.54
2019-01-13T17:11:39.457Z,8.54
2019-01-13T17:14:09.437Z,8.53
2019-01-13T17:16:39.098Z,8.54
2019-01-13T17:19:08.447Z,8.52
2019-01-13T17:21:50.182Z,8.50
2019-01-13T17:24:20.728Z,8.50
2019-01-13T17:26:50.310Z,8.59
2019-01-13T17:29:19.940Z,8.59
2019-01-13T17:32:08.642Z,8.58
2019-01-13T17:34:50.302Z,8.59
2019-01-13T17:37:19.628Z,8.59
2019-01-13T17:42:57.636Z,8.56
2019-01-13T17:45:39.128Z,8.51
2019-01-13T17:48:09.652Z,8.51
2019-01-13T17:50:39.115Z,8.43
2019-01-13T17:53:10.435Z,8.43
2019-01-13T17:55:39.753Z,8.42
2019-01-13T17:58:14.747Z,8.41
2019-01-13T18:01:05.122Z,8.32
2019-01-13T18:06:56.483Z,8.29
2019-01-13T18:09:26.113Z,8.28
2019-01-13T18:11:55.433Z,8.28
2019-01-13T18:14:25.363Z,8.32
2019-01-13T18:16:54.674Z,8.34
2019-01-13T18:19:24.640Z,8.35
2019-01-13T18:21:54.188Z,8.34
2019-01-13T18:24:23.594Z,8.34
2019-01-13T18:26:53.200Z,8.34
2019-01-13T18:29:22.822Z,8.32
2019-01-13T18:31:52.333Z,8.38
2019-01-13T18:34:21.705Z,8.41
2019-01-13T18:37:10.649Z,8.44
2019-01-13T18:39:53.213Z,8.45
2019-01-13T18:42:22.537Z,8.45
2019-01-13T18:44:52.404Z,8.51
2019-01-13T18:47:21.983Z,8.53
2019-01-13T18:49:51.474Z,8.54
2019-01-13T18:52:20.796Z,8.49
2019-01-13T18:54:50.603Z,7.99
2019-01-13T18:57:20.247Z,7.99
2019-01-13T18:59:49.816Z,7.84
2019-01-13T19:02:19.501Z,7.79
2019-01-13T19:04:48.835Z,7.74
2019-01-13T19:07:18.451Z,7.74
2019-01-13T19:09:47.791Z,7.77
2019-01-13T19:12:17.405Z,7.80
2019-01-13T19:14:46.745Z,7.81
2019-01-13T19:17:16.359Z,7.87
2019-01-13T19:19:45.698Z,7.95
2019-01-13T19:22:15.311Z,8.09
2019-01-13T19:24:44.982Z,8.16
2019-01-13T19:27:14.588Z,8.26
2019-01-13T19:29:45.567Z,8.33
2019-01-13T19:38:12.569Z,8.46
2019-01-13T19:40:41.904Z,8.49
2019-01-13T19:46:07.908Z,8.49
2019-01-13T19:48:37.798Z,8.55
2019-01-13T19:51:07.787Z,8.55
2019-01-13T19:53:57.084Z,8.58
2019-01-13T19:56:26.434Z,8.58
2019-01-13T19:58:55.762Z,8.59
2019-01-13T20:01:25.392Z,8.58
2019-01-13T20:03:54.711Z,8.58
2019-01-13T20:06:24.046Z,8.59
2019-01-13T20:11:42.509Z,8.55
2019-01-13T20:14:11.841Z,8.60
2019-01-13T20:16:41.471Z,8.61
2019-01-13T20:19:10.855Z,8.63
2019-01-13T20:24:33.597Z,8.63
2019-01-13T20:27:02.936Z,8.63
2019-01-13T20:32:28.757Z,8.59
2019-01-13T20:34:59.715Z,8.57
2019-01-13T20:37:29.093Z,8.55
2019-01-13T20:39:58.951Z,8.48
2019-01-13T20:42:29.883Z,8.48
2019-01-13T20:45:00.887Z,8.49
2019-01-13T20:50:58.972Z,8.42
2019-01-13T20:53:41.665Z,8.46
2019-01-13T20:56:11.811Z,8.46
2019-01-13T20:58:41.135Z,8.44
2019-01-13T21:01:10.763Z,8.44
2019-01-13T21:03:40.111Z,8.44
2019-01-13T21:06:09.965Z,8.44
2019-01-13T21:08:39.596Z,8.47
2019-01-13T21:11:09.208Z,8.46
2019-01-13T21:13:52.828Z,8.40
2019-01-13T21:16:22.162Z,8.40
2019-01-13T21:19:11.158Z,8.29
2019-01-13T21:21:52.668Z,8.25
2019-01-13T21:24:22.284Z,8.25
2019-01-13T21:26:51.809Z,8.15
2019-01-13T21:29:21.141Z,8.11
2019-01-13T21:32:10.014Z,7.98
2019-01-13T21:34:51.577Z,7.98
2019-01-13T21:37:21.164Z,7.98
2019-01-13T21:39:50.619Z,7.95
2019-01-13T21:42:32.408Z,7.91
2019-01-13T21:45:13.790Z,7.89
2019-01-13T21:47:43.270Z,7.89
2019-01-13T21:50:32.236Z,7.92
2019-01-13T21:53:01.574Z,7.92
2019-01-13T21:55:30.907Z,7.94
2019-01-13T21:58:00.567Z,7.95
2019-01-13T22:00:29.911Z,7.95
2019-01-13T22:02:59.255Z,7.95
2019-01-13T22:05:28.858Z,7.96
2019-01-13T22:07:58.457Z,7.98
2019-01-13T22:10:28.081Z,7.97
2019-01-13T22:13:03.928Z,8.02
2019-01-13T22:15:33.248Z,8.02
2019-01-13T22:18:02.887Z,8.04
2019-01-13T22:20:32.550Z,8.04
2019-01-13T22:23:01.877Z,8.05
2019-01-13T22:25:31.454Z,8.02
2019-01-13T22:28:00.900Z,8.01
2019-01-13T22:30:30.215Z,8.00
2019-01-13T22:33:00.196Z,7.98
2019-01-13T22:35:49.211Z,7.92
2019-01-13T22:38:18.846Z,7.92
2019-01-13T22:40:48.862Z,7.96
2019-01-13T22:43:20.146Z,7.99
2019-01-13T22:45:49.754Z,8.04
2019-01-13T22:48:41.204Z,8.04
2019-01-13T22:51:10.776Z,8.04
2019-01-13T22:53:41.922Z,8.02
2019-01-13T22:56:11.253Z,8.02
2019-01-13T22:58:40.852Z,8.08
2019-01-13T23:01:31.083Z,8.10
2019-01-13T23:04:19.822Z,8.09
2019-01-13T23:06:49.149Z,8.12
2019-01-13T23:09:18.581Z,8.13
2019-01-13T23:15:03.105Z,8.15
2019-01-13T23:17:32.425Z,8.17
2019-01-13T23:20:01.974Z,8.14
2019-01-13T23:22:31.305Z,8.14
2019-01-13T23:25:00.874Z,8.04
2019-01-13T23:27:31.830Z,8.04
2019-01-13T23:30:01.173Z,8.05
2019-01-13T23:32:30.518Z,8.01
2019-01-13T23:34:59.975Z,7.96
2019-01-13T23:37:29.307Z,7.93
2019-01-13T23:40:11.912Z,7.94
2019-01-13T23:42:41.234Z,7.94
2019-01-13T23:45:10.569Z,7.93
2019-01-13T23:47:40.103Z,7.92
2019-01-13T23:50:09.514Z,7.87
2019-01-13T23:52:51.754Z,7.86
2019-01-13T23:55:21.572Z,7.86
2019-01-13T23:57:51.252Z,7.84
